Schneifelwetter: Wetterstation Hallschlag, 537 m . NN
Wetterdaten: Samstag, 28.03.2009
Datum Zeit Temp. A. Feuchte A. Luftdruck Regen Wind Richtung Richtung Sonnenschein Helligkeit T Regen Taupunkt Windchill
28.03.2009 00:14 2,4 C 94 % 997 hPa 0,0 l/m 22,4 km/h (4 Bft) S-SW45 205 0 min 0 lux 0,00 min 1,5 C -7,5 C
28.03.2009 00:29 2,3 C 94 % 997 hPa 0,0 l/m 20,6 km/h (4 Bft) S-SW22.5 200 0 min 0 lux 0,00 min 1,4 C -6,9 C
28.03.2009 00:44 2,2 C 93 % 997 hPa 0,0 l/m 18,3 km/h (3 Bft) S67.5 190 0 min 0 lux 0,00 min 1,2 C -6,0 C
28.03.2009 00:59 2,1 C 94 % 997 hPa 0,0 l/m 19,4 km/h (3 Bft) S-SW45 195 0 min 0 lux 0,00 min 1,2 C -6,7 C
28.03.2009 01:14 2,3 C 94 % 997 hPa 0,0 l/m 15,5 km/h (3 Bft) S22.5 185 0 min 0 lux 0,00 min 1,4 C -4,5 C
28.03.2009 01:29 2,3 C 94 % 996 hPa 0,0 l/m 18,5 km/h (3 Bft) S22.5 180 0 min 0 lux 0,00 min 1,4 C -6,0 C
28.03.2009 01:44 2,3 C 94 % 996 hPa 0,0 l/m 15,7 km/h (3 Bft) S22.5 185 0 min 0 lux 0,00 min 1,4 C -4,6 C
28.03.2009 01:59 2,3 C 94 % 996 hPa 0,0 l/m 16,7 km/h (3 Bft) S22.5 185 0 min 0 lux 0,00 min 1,4 C -5,1 C
28.03.2009 02:14 2,2 C 95 % 996 hPa 0,0 l/m 17,0 km/h (3 Bft) S22.5 180 0 min 0 lux 0,00 min 1,5 C -5,4 C
28.03.2009 02:29 2,3 C 95 % 995 hPa 0,0 l/m 15,7 km/h (3 Bft) S22.5 180 0 min 0 lux 0,00 min 1,6 C -4,6 C
28.03.2009 02:44 2,4 C 96 % 995 hPa 0,0 l/m 18,5 km/h (3 Bft) S-SW45 205 0 min 0 lux 0,00 min 1,8 C -5,9 C
28.03.2009 02:59 2,5 C 96 % 995 hPa 0,0 l/m 21,9 km/h (4 Bft) S22.5 180 0 min 0 lux 0,00 min 1,9 C -7,2 C
28.03.2009 03:14 2,7 C 95 % 995 hPa 0,0 l/m 18,8 km/h (3 Bft) S-SW45 200 0 min 0 lux 0,00 min 2,0 C -5,6 C
28.03.2009 03:29 2,7 C 95 % 995 hPa 0,0 l/m 18,2 km/h (3 Bft) S22.5 180 0 min 0 lux 0,00 min 2,0 C -5,3 C
28.03.2009 03:44 2,7 C 95 % 994 hPa 0,0 l/m 20,1 km/h (4 Bft) S22.5 180 0 min 0 lux 0,00 min 2,0 C -6,2 C
28.03.2009 03:59 2,7 C 95 % 994 hPa 0,0 l/m 19,0 km/h (3 Bft) S45 190 0 min 0 lux 0,00 min 2,0 C -5,7 C
28.03.2009 04:14 2,7 C 96 % 994 hPa 0,0 l/m 17,0 km/h (3 Bft) S-SW22.5 195 0 min 0 lux 0,00 min 2,1 C -4,8 C
28.03.2009 04:29 2,8 C 96 % 994 hPa 0,0 l/m 12,6 km/h (3 Bft) S22.5 175 0 min 0 lux 0,00 min 2,2 C -2,2 C
28.03.2009 04:44 2,9 C 96 % 994 hPa 0,0 l/m 12,6 km/h (3 Bft) S22.5 175 0 min 0 lux 0,00 min 2,3 C -2,1 C
28.03.2009 04:59 2,7 C 96 % 994 hPa 0,0 l/m 22,0 km/h (4 Bft) S45 180 0 min 0 lux 0,00 min 2,1 C -7,0 C
28.03.2009 05:14 2,7 C 96 % 994 hPa 0,0 l/m 24,0 km/h (4 Bft) S-SW45 210 0 min 0 lux 0,00 min 2,1 C -7,7 C
28.03.2009 05:29 2,8 C 97 % 993 hPa 0,0 l/m 27,8 km/h (4 Bft) SW45 215 0 min 0 lux 0,00 min 2,4 C -8,8 C
28.03.2009 05:44 2,8 C 97 % 993 hPa 0,3 l/m 21,9 km/h (4 Bft) SW22.5 220 0 min 0 lux 15,00 min 2,4 C -6,8 C
28.03.2009 05:59 2,9 C 97 % 993 hPa 0,0 l/m 26,3 km/h (4 Bft) SW45 215 0 min 0 lux 0,00 min 2,5 C -8,2 C
28.03.2009 06:14 2,9 C 96 % 993 hPa 0,0 l/m 20,8 km/h (4 Bft) S-SW45 210 0 min 71 lux 0,00 min 2,3 C -6,2 C
28.03.2009 06:29 3,0 C 96 % 993 hPa 0,0 l/m 18,7 km/h (3 Bft) SW45 215 0 min 382 lux 0,00 min 2,4 C -5,2 C
28.03.2009 06:44 3,1 C 96 % 993 hPa 0,0 l/m 21,2 km/h (4 Bft) S-SW45 200 0 min 1,03 klux 0,00 min 2,5 C -6,1 C
28.03.2009 06:59 3,1 C 95 % 993 hPa 0,0 l/m 25,8 km/h (4 Bft) S-SW45 205 0 min 1,28 klux 0,00 min 2,4 C -7,8 C
28.03.2009 07:14 3,3 C 95 % 993 hPa 0,0 l/m 22,0 km/h (4 Bft) S-SW45 205 0 min 1,86 klux 0,00 min 2,6 C -6,2 C
28.03.2009 07:29 3,5 C 95 % 992 hPa 0,0 l/m 21,7 km/h (4 Bft) S-SW45 195 0 min 7,31 klux 0,00 min 2,8 C -5,8 C
28.03.2009 07:44 3,7 C 94 % 992 hPa 0,0 l/m 24,0 km/h (4 Bft) S-SW22.5 195 0 min 7,31 klux 0,00 min 2,8 C -6,4 C
28.03.2009 07:59 3,7 C 94 % 992 hPa 0,0 l/m 16,6 km/h (3 Bft) S45 185 0 min 4,76 klux 0,00 min 2,8 C -3,3 C
28.03.2009 08:14 3,6 C 94 % 992 hPa 0,0 l/m 20,3 km/h (4 Bft) S22.5 180 0 min 2,23 klux 0,00 min 2,7 C -5,1 C
28.03.2009 08:29 3,5 C 95 % 992 hPa 0,3 l/m 23,1 km/h (4 Bft) S67.5 190 0 min 6,97 klux 15,00 min 2,8 C -6,3 C
28.03.2009 08:44 3,5 C 96 % 991 hPa 0,0 l/m 23,1 km/h (4 Bft) S45 180 0 min 5,18 klux 0,00 min 2,9 C -6,3 C
28.03.2009 08:59 3,5 C 96 % 991 hPa 0,3 l/m 19,5 km/h (3 Bft) S45 185 0 min 5,99 klux 15,00 min 2,9 C -4,9 C
28.03.2009 09:14 3,6 C 96 % 992 hPa 0,0 l/m 24,0 km/h (4 Bft) S45 185 0 min 9,8 klux 0,00 min 3,0 C -6,5 C
28.03.2009 09:29 3,7 C 96 % 992 hPa 0,0 l/m 31,1 km/h (5 Bft) S-SW22.5 195 0 min 8,74 klux 0,00 min 3,1 C -8,5 C
28.03.2009 09:45 3,6 C 96 % 992 hPa 0,0 l/m 28,1 km/h (4 Bft) S-SW45 200 0 min 9,00 klux 0,00 min 3,0 C -7,8 C
28.03.2009 09:59 3,9 C 96 % 991 hPa 0,0 l/m 26,9 km/h (4 Bft) S-SW67.5 210 0 min 14,4 klux 0,00 min 3,3 C -7,0 C
28.03.2009 10:14 3,8 C 95 % 992 hPa 0,0 l/m 26,0 km/h (4 Bft) S-SW22.5 200 0 min 18,0 klux 0,00 min 3,1 C -6,9 C
28.03.2009 10:29 4,0 C 95 % 992 hPa 0,0 l/m 23,5 km/h (4 Bft) S-SW22.5 205 0 min 17,5 klux 0,00 min 3,3 C -5,8 C
28.03.2009 10:44 3,9 C 95 % 992 hPa 0,0 l/m 35,0 km/h (5 Bft) SW22.5 215 0 min 14,9 klux 0,00 min 3,2 C -9,1 C
28.03.2009 10:59 3,7 C 95 % 992 hPa 1,8 l/m 45,6 km/h (6 Bft) W-SW22.5 255 0 min 12,7 klux 15,00 min 3,0 C -11,4 C
28.03.2009 11:14 3,2 C 93 % 993 hPa 0,3 l/m 43,8 km/h (6 Bft) W-SW22.5 245 0 min 13,6 klux 15,00 min 2,2 C -11,9 C
28.03.2009 11:30 3,8 C 96 % 993 hPa 0,0 l/m 33,2 km/h (5 Bft) W-SW22.5 250 16 min 55,0 klux 0,00 min 3,2 C -8,9 C
28.03.2009 11:44 4,7 C 95 % 993 hPa 0,0 l/m 30,1 km/h (5 Bft) W-SW22.5 255 0 min 37,6 klux 0,00 min 4,0 C -6,8 C
28.03.2009 11:59 4,9 C 93 % 993 hPa 0,0 l/m 41,1 km/h (6 Bft) W-SW22.5 250 0 min 37,6 klux 0,00 min 3,9 C -8,9 C
28.03.2009 12:14 5,4 C 91 % 993 hPa 0,0 l/m 47,2 km/h (6 Bft) W-SW45 245 0 min 22,3 klux 0,00 min 4,1 C -9,0 C
28.03.2009 12:29 3,6 C 91 % 994 hPa 0,6 l/m 33,6 km/h (5 Bft) W22.5 260 0 min 21,8 klux 15,00 min 2,3 C -9,3 C
28.03.2009 12:44 4,3 C 93 % 994 hPa 0,0 l/m 35,7 km/h (5 Bft) W45 260 15 min 103 klux 0,00 min 3,3 C -8,7 C
28.03.2009 12:59 4,7 C 92 % 994 hPa 0,0 l/m 39,6 km/h (6 Bft) W22.5 260 0 min 34,0 klux 0,00 min 3,5 C -8,9 C
28.03.2009 13:15 5,4 C 90 % 995 hPa 0,0 l/m 42,8 km/h (6 Bft) W-SW22.5 255 16 min 100 klux 0,00 min 3,9 C -8,4 C
28.03.2009 13:29 5,3 C 89 % 995 hPa 0,0 l/m 35,1 km/h (5 Bft) W-SW45 250 0 min 28,9 klux 0,00 min 3,6 C -7,1 C
28.03.2009 13:44 5,1 C 89 % 995 hPa 0,0 l/m 31,8 km/h (5 Bft) W-SW22.5 255 0 min 27,8 klux 0,00 min 3,4 C -6,7 C
28.03.2009 13:59 5,2 C 89 % 995 hPa 0,0 l/m 38,3 km/h (5 Bft) W22.5 265 0 min 39,0 klux 0,00 min 3,5 C -7,9 C
28.03.2009 14:14 5,5 C 86 % 995 hPa 0,0 l/m 27,5 km/h (4 Bft) W45 260 15 min 80,8 klux 0,00 min 3,3 C -5,0 C
28.03.2009 14:29 5,1 C 87 % 996 hPa 0,0 l/m 24,8 km/h (4 Bft) W22.5 260 0 min 28,4 klux 0,00 min 3,1 C -4,7 C
28.03.2009 14:44 5,5 C 87 % 996 hPa 0,0 l/m 44,7 km/h (6 Bft) W-SW45 255 15 min 79,3 klux 0,00 min 3,5 C -8,5 C
28.03.2009 15:00 6,1 C 84 % 996 hPa 0,0 l/m 35,3 km/h (5 Bft) W-SW22.5 250 16 min 86,3 klux 0,00 min 3,6 C -6,0 C
28.03.2009 15:14 6,2 C 79 % 996 hPa 0,0 l/m 45,6 km/h (6 Bft) W-SW45 240 14 min 76,2 klux 0,00 min 2,8 C -7,6 C
28.03.2009 15:29 6,3 C 77 % 996 hPa 0,0 l/m 49,9 km/h (6 Bft) W-SW45 250 15 min 68,0 klux 0,00 min 2,6 C -8,0 C
28.03.2009 15:44 6,0 C 75 % 996 hPa 0,0 l/m 44,5 km/h (6 Bft) W-SW22.5 245 15 min 69,7 klux 0,00 min 1,9 C -7,7 C
28.03.2009 15:59 6,0 C 73 % 996 hPa 0,0 l/m 53,9 km/h (7 Bft) W45 260 15 min 60,1 klux 0,00 min 1,5 C -8,9 C
28.03.2009 16:14 5,8 C 74 % 996 hPa 0,0 l/m 44,1 km/h (6 Bft) W-SW45 245 0 min 33,1 klux 0,00 min 1,5 C -8,0 C
28.03.2009 16:23 5,3 C 75 % 997 hPa 0,0 l/m 44,5 km/h (6 Bft) W-SW22.5 250 0 min 12,8 klux 0,00 min 1,2 C -8,8 C
28.03.2009 16:38 4,8 C 80 % 997 hPa 0,3 l/m 49,3 km/h (6 Bft) W-SW22.5 250 15 min 50,0 klux 15,00 min 1,6 C -10,2 C
28.03.2009 16:53 4,2 C 84 % 997 hPa 0,0 l/m 30,5 km/h (5 Bft) W-SW45 245 0 min 10,2 klux 0,00 min 1,7 C -7,6 C
28.03.2009 17:08 3,9 C 86 % 997 hPa 0,0 l/m 23,6 km/h (4 Bft) W-SW22.5 250 0 min 10,8 klux 0,00 min 1,8 C -6,0 C
28.03.2009 17:29 4,2 C 86 % 997 hPa 0,0 l/m 21,6 km/h (4 Bft) W-SW22.5 240 0 min 32,7 klux 0,00 min 2,1 C -4,8 C
28.03.2009 17:44 4,0 C 85 % 997 hPa 0,0 l/m 35,0 km/h (5 Bft) W-SW22.5 240 0 min 8,02 klux 0,00 min 1,7 C -9,0 C
28.03.2009 17:59 3,9 C 85 % 998 hPa 0,0 l/m 26,1 km/h (4 Bft) SW45 235 0 min 3,29 klux 0,00 min 1,6 C -6,8 C
28.03.2009 18:15 3,9 C 86 % 998 hPa 0,0 l/m 32,6 km/h (5 Bft) W-SW67.5 245 0 min 1,94 klux 0,00 min 1,8 C -8,6 C
28.03.2009 18:30 3,7 C 86 % 998 hPa 0,0 l/m 30,6 km/h (5 Bft) W-SW22.5 250 0 min 1,49 klux 0,00 min 1,6 C -8,4 C
28.03.2009 18:44 3,4 C 88 % 998 hPa 0,0 l/m 42,6 km/h (6 Bft) W-SW22.5 250 0 min 1,54 klux 0,00 min 1,6 C -11,4 C
28.03.2009 18:59 2,9 C 89 % 999 hPa 0,0 l/m 35,5 km/h (5 Bft) SW45 230 0 min 1,07 klux 0,00 min 1,3 C -10,7 C
28.03.2009 19:14 2,3 C 90 % 999 hPa 0,0 l/m 37,9 km/h (5 Bft) SW45 235 0 min 375 lux 0,00 min 0,8 C -12,1 C
28.03.2009 19:29 2,1 C 92 % 999 hPa 0,0 l/m 25,4 km/h (4 Bft) W-SW22.5 250 0 min 55 lux 0,00 min 0,9 C -9,0 C
28.03.2009 19:45 2,3 C 92 % 999 hPa 0,0 l/m 35,6 km/h (5 Bft) W-SW22.5 250 0 min 1 lux 0,00 min 1,1 C -11,6 C
28.03.2009 20:00 2,3 C 93 % 1000 hPa 0,0 l/m 27,6 km/h (4 Bft) W-SW45 240 0 min 0 lux 0,00 min 1,3 C -9,5 C
28.03.2009 20:14 2,2 C 93 % 1000 hPa 0,0 l/m 28,8 km/h (4 Bft) W-SW22.5 245 0 min 0 lux 0,00 min 1,2 C -10,0 C
28.03.2009 20:29 2,3 C 94 % 1000 hPa 0,0 l/m 32,7 km/h (5 Bft) W-SW45 245 0 min 0 lux 0,00 min 1,4 C -10,9 C
28.03.2009 20:44 2,3 C 94 % 1000 hPa 0,0 l/m 34,0 km/h (5 Bft) W-SW22.5 255 0 min 0 lux 0,00 min 1,4 C -11,2 C
28.03.2009 20:59 2,1 C 94 % 1000 hPa 0,0 l/m 27,8 km/h (4 Bft) W-SW45 255 0 min 0 lux 0,00 min 1,2 C -9,8 C
28.03.2009 21:14 1,8 C 94 % 1000 hPa 0,0 l/m 26,5 km/h (4 Bft) W-SW45 245 0 min 0 lux 0,00 min 0,9 C -9,8 C
28.03.2009 21:30 1,8 C 95 % 1001 hPa 0,0 l/m 31,6 km/h (5 Bft) W-SW22.5 250 0 min 0 lux 0,00 min 1,1 C -11,3 C
28.03.2009 21:29 1,8 C 95 % 1001 hPa 0,0 l/m 31,6 km/h (5 Bft) W-SW22.5 250 0 min 0 lux 0,00 min 1,1 C -11,3 C
28.03.2009 21:44 1,9 C 96 % 1001 hPa 0,0 l/m 28,8 km/h (4 Bft) W-SW22.5 245 0 min 0 lux 0,00 min 1,3 C -10,4 C
28.03.2009 21:59 1,9 C 96 % 1001 hPa 0,0 l/m 28,3 km/h (4 Bft) W-SW22.5 250 0 min 0 lux 0,00 min 1,3 C -10,2 C
28.03.2009 22:14 1,9 C 96 % 1001 hPa 0,0 l/m 38,8 km/h (5 Bft) W-SW22.5 250 0 min 0 lux 0,00 min 1,3 C -12,9 C
28.03.2009 22:29 1,6 C 95 % 1001 hPa 0,0 l/m 36,8 km/h (5 Bft) W-SW22.5 245 0 min 0 lux 0,00 min 0,9 C -12,9 C
28.03.2009 22:45 1,5 C 96 % 1001 hPa 0,0 l/m 32,2 km/h (5 Bft) W-SW22.5 250 0 min 0 lux 0,00 min 0,9 C -11,9 C
28.03.2009 22:59 1,4 C 96 % 1001 hPa 0,0 l/m 28,1 km/h (4 Bft) W-SW45 255 0 min 0 lux 0,00 min 0,8 C -10,9 C
28.03.2009 23:14 1,5 C 96 % 1001 hPa 0,0 l/m 27,1 km/h (4 Bft) W22.5 260 0 min 0 lux 0,00 min 0,9 C -10,4 C
28.03.2009 23:29 1,7 C 97 % 1002 hPa 0,0 l/m 31,7 km/h (5 Bft) W-SW22.5 255 0 min 0 lux 0,00 min 1,3 C -11,5 C
28.03.2009 23:44 1,9 C 97 % 1002 hPa 0,0 l/m 28,8 km/h (4 Bft) W22.5 260 0 min 0 lux 0,00 min 1,5 C -10,4 C
28.03.2009 23:59 1,9 C 96 % 1002 hPa 0,0 l/m 18,8 km/h (3 Bft) W22.5 260 0 min 0 lux 0,00 min 1,3 C -6,6 C
_ Min-Zeit 22:59 15:59 08:44 - 04:29 - - - - - 19:14 22:29
Minimum _ 1,4 C 73 % 991 hPa - 12,6 km/h (3 Bft) - - - - - 0,8 C -12,9 C
_ Max-Zeit 15:29 05:29 23:29 10:59 15:59 - - 11:30 12:44 05:44 12:14 04:44
Maximum _ 6,3 C 97 % 1002 hPa 1,8 l/m 53,9 km/h
W (7 Bft)
- - 16 min 103 klux 15,00 min 4,1 C -2,1 C
Durchschnitt _ 3,3 C 92 % 996 hPa #3,9 l/m 28,8 km/h (4 Bft) W-SW - #2:47 h 14,3 klux #1:45 h 2,1 C -7,8 C